sensor_id;sensor_type;location;lat;lon;timestamp;P1;durP1;ratioP1;P2;durP2;ratioP2
47669;SDS011;33408;52.062;11.722;2023-02-01T00:02:15;15.32;;;3.63;;
47669;SDS011;33408;52.062;11.722;2023-02-01T00:04:41;16.23;;;3.92;;
47669;SDS011;33408;52.062;11.722;2023-02-01T00:07:08;18.35;;;4.43;;
47669;SDS011;33408;52.062;11.722;2023-02-01T00:09:34;18.15;;;3.85;;
47669;SDS011;33408;52.062;11.722;2023-02-01T00:12:01;16.58;;;3.60;;
47669;SDS011;33408;52.062;11.722;2023-02-01T00:14:28;18.30;;;4.35;;
47669;SDS011;33408;52.062;11.722;2023-02-01T00:16:57;19.90;;;3.85;;
47669;SDS011;33408;52.062;11.722;2023-02-01T00:19:25;17.88;;;3.95;;
47669;SDS011;33408;52.062;11.722;2023-02-01T00:21:51;14.80;;;4.15;;
47669;SDS011;33408;52.062;11.722;2023-02-01T00:24:18;15.07;;;3.58;;
47669;SDS011;33408;52.062;11.722;2023-02-01T00:26:45;16.40;;;4.68;;
47669;SDS011;33408;52.062;11.722;2023-02-01T00:29:13;14.07;;;3.33;;
47669;SDS011;33408;52.062;11.722;2023-02-01T00:31:41;19.67;;;4.57;;
47669;SDS011;33408;52.062;11.722;2023-02-01T00:34:09;18.00;;;3.28;;
47669;SDS011;33408;52.062;11.722;2023-02-01T00:36:39;23.73;;;4.28;;
47669;SDS011;33408;52.062;11.722;2023-02-01T00:39:06;14.45;;;3.65;;
47669;SDS011;33408;52.062;11.722;2023-02-01T00:41:32;14.55;;;3.22;;
47669;SDS011;33408;52.062;11.722;2023-02-01T00:43:59;17.58;;;4.25;;
47669;SDS011;33408;52.062;11.722;2023-02-01T00:46:26;15.70;;;4.22;;
47669;SDS011;33408;52.062;11.722;2023-02-01T00:48:53;17.05;;;3.53;;
47669;SDS011;33408;52.062;11.722;2023-02-01T00:51:20;16.77;;;4.13;;
47669;SDS011;33408;52.062;11.722;2023-02-01T00:53:49;19.88;;;4.53;;
47669;SDS011;33408;52.062;11.722;2023-02-01T00:56:16;16.38;;;4.00;;
47669;SDS011;33408;52.062;11.722;2023-02-01T00:58:43;15.90;;;4.22;;
47669;SDS011;33408;52.062;11.722;2023-02-01T01:01:11;16.83;;;3.78;;
47669;SDS011;33408;52.062;11.722;2023-02-01T01:03:39;11.93;;;3.33;;
47669;SDS011;33408;52.062;11.722;2023-02-01T01:06:08;16.17;;;3.50;;
47669;SDS011;33408;52.062;11.722;2023-02-01T01:08:36;18.48;;;4.53;;
47669;SDS011;33408;52.062;11.722;2023-02-01T01:11:05;17.63;;;4.32;;
47669;SDS011;33408;52.062;11.722;2023-02-01T01:13:33;19.15;;;4.05;;
47669;SDS011;33408;52.062;11.722;2023-02-01T01:16:00;23.98;;;5.25;;
47669;SDS011;33408;52.062;11.722;2023-02-01T01:18:27;17.80;;;4.18;;
47669;SDS011;33408;52.062;11.722;2023-02-01T01:20:54;15.25;;;3.90;;
47669;SDS011;33408;52.062;11.722;2023-02-01T01:23:21;15.65;;;3.50;;
47669;SDS011;33408;52.062;11.722;2023-02-01T01:25:48;24.20;;;4.40;;
47669;SDS011;33408;52.062;11.722;2023-02-01T01:28:16;21.15;;;4.30;;
47669;SDS011;33408;52.062;11.722;2023-02-01T01:30:42;22.25;;;4.80;;
47669;SDS011;33408;52.062;11.722;2023-02-01T01:33:09;22.75;;;4.25;;
47669;SDS011;33408;52.062;11.722;2023-02-01T01:35:36;18.38;;;4.22;;
47669;SDS011;33408;52.062;11.722;2023-02-01T01:38:03;19.50;;;3.60;;
47669;SDS011;33408;52.062;11.722;2023-02-01T01:40:29;17.23;;;4.22;;
47669;SDS011;33408;52.062;11.722;2023-02-01T01:42:57;18.60;;;4.72;;
47669;SDS011;33408;52.062;11.722;2023-02-01T01:45:26;20.02;;;4.22;;
47669;SDS011;33408;52.062;11.722;2023-02-01T01:47:54;23.00;;;4.80;;
47669;SDS011;33408;52.062;11.722;2023-02-01T01:50:25;18.90;;;4.07;;
47669;SDS011;33408;52.062;11.722;2023-02-01T01:52:55;17.67;;;3.67;;
47669;SDS011;33408;52.062;11.722;2023-02-01T01:55:25;16.48;;;4.05;;
47669;SDS011;33408;52.062;11.722;2023-02-01T01:57:57;18.40;;;4.38;;
47669;SDS011;33408;52.062;11.722;2023-02-01T02:00:29;19.45;;;4.47;;
47669;SDS011;33408;52.062;11.722;2023-02-01T02:02:57;20.85;;;4.88;;
47669;SDS011;33408;52.062;11.722;2023-02-01T02:05:28;21.02;;;4.40;;
47669;SDS011;33408;52.062;11.722;2023-02-01T02:07:56;21.25;;;4.70;;
47669;SDS011;33408;52.062;11.722;2023-02-01T02:10:25;23.08;;;4.32;;
47669;SDS011;33408;52.062;11.722;2023-02-01T02:13:13;23.50;;;4.40;;
47669;SDS011;33408;52.062;11.722;2023-02-01T02:15:44;22.23;;;4.75;;
47669;SDS011;33408;52.062;11.722;2023-02-01T02:18:22;19.73;;;5.38;;
47669;SDS011;33408;52.062;11.722;2023-02-01T02:21:07;18.17;;;5.15;;
47669;SDS011;33408;52.062;11.722;2023-02-01T02:23:47;20.40;;;4.88;;
47669;SDS011;33408;52.062;11.722;2023-02-01T02:26:46;22.90;;;4.72;;
47669;SDS011;33408;52.062;11.722;2023-02-01T02:32:40;21.00;;;4.43;;
47669;SDS011;33408;52.062;11.722;2023-02-01T02:35:21;19.02;;;4.15;;
47669;SDS011;33408;52.062;11.722;2023-02-01T02:37:53;18.38;;;4.68;;
47669;SDS011;33408;52.062;11.722;2023-02-01T02:40:29;18.02;;;4.57;;
47669;SDS011;33408;52.062;11.722;2023-02-01T02:43:00;20.13;;;4.03;;
47669;SDS011;33408;52.062;11.722;2023-02-01T02:45:54;19.35;;;5.05;;
47669;SDS011;33408;52.062;11.722;2023-02-01T02:48:54;18.58;;;4.60;;
47669;SDS011;33408;52.062;11.722;2023-02-01T02:51:27;22.70;;;5.03;;
47669;SDS011;33408;52.062;11.722;2023-02-01T02:54:17;19.80;;;5.30;;
47669;SDS011;33408;52.062;11.722;2023-02-01T02:57:04;20.10;;;4.35;;
47669;SDS011;33408;52.062;11.722;2023-02-01T02:59:51;26.33;;;4.90;;
47669;SDS011;33408;52.062;11.722;2023-02-01T03:02:37;21.38;;;5.03;;
47669;SDS011;33408;52.062;11.722;2023-02-01T03:05:21;28.25;;;5.88;;
47669;SDS011;33408;52.062;11.722;2023-02-01T03:07:55;21.00;;;4.88;;
47669;SDS011;33408;52.062;11.722;2023-02-01T03:10:30;24.08;;;5.47;;
47669;SDS011;33408;52.062;11.722;2023-02-01T03:13:02;27.55;;;5.85;;
47669;SDS011;33408;52.062;11.722;2023-02-01T03:15:32;22.33;;;5.53;;
47669;SDS011;33408;52.062;11.722;2023-02-01T03:18:04;20.13;;;5.18;;
47669;SDS011;33408;52.062;11.722;2023-02-01T03:20:37;18.52;;;5.38;;
47669;SDS011;33408;52.062;11.722;2023-02-01T03:23:11;14.88;;;4.78;;
47669;SDS011;33408;52.062;11.722;2023-02-01T03:25:41;18.67;;;4.78;;
47669;SDS011;33408;52.062;11.722;2023-02-01T03:28:09;25.10;;;5.55;;
47669;SDS011;33408;52.062;11.722;2023-02-01T03:30:37;19.08;;;6.13;;
47669;SDS011;33408;52.062;11.722;2023-02-01T03:33:07;19.02;;;4.32;;
47669;SDS011;33408;52.062;11.722;2023-02-01T03:35:40;23.38;;;4.40;;
47669;SDS011;33408;52.062;11.722;2023-02-01T03:38:14;19.47;;;4.80;;
47669;SDS011;33408;52.062;11.722;2023-02-01T03:40:49;16.25;;;4.82;;
47669;SDS011;33408;52.062;11.722;2023-02-01T03:43:19;22.20;;;4.85;;
47669;SDS011;33408;52.062;11.722;2023-02-01T03:45:49;21.83;;;4.38;;
47669;SDS011;33408;52.062;11.722;2023-02-01T03:48:19;24.05;;;4.97;;
47669;SDS011;33408;52.062;11.722;2023-02-01T03:50:49;20.65;;;4.53;;
47669;SDS011;33408;52.062;11.722;2023-02-01T03:53:22;17.38;;;4.30;;
47669;SDS011;33408;52.062;11.722;2023-02-01T03:55:50;21.00;;;4.38;;
47669;SDS011;33408;52.062;11.722;2023-02-01T03:58:20;26.27;;;5.60;;
47669;SDS011;33408;52.062;11.722;2023-02-01T04:00:49;22.58;;;5.10;;
47669;SDS011;33408;52.062;11.722;2023-02-01T04:03:17;23.50;;;4.78;;
47669;SDS011;33408;52.062;11.722;2023-02-01T04:05:44;20.00;;;4.72;;
47669;SDS011;33408;52.062;11.722;2023-02-01T04:08:10;17.85;;;4.03;;
47669;SDS011;33408;52.062;11.722;2023-02-01T04:10:38;22.85;;;5.10;;
47669;SDS011;33408;52.062;11.722;2023-02-01T04:13:05;20.27;;;5.38;;
47669;SDS011;33408;52.062;11.722;2023-02-01T04:15:32;18.10;;;4.85;;
47669;SDS011;33408;52.062;11.722;2023-02-01T04:17:59;26.38;;;5.43;;
47669;SDS011;33408;52.062;11.722;2023-02-01T04:20:26;14.55;;;4.55;;
47669;SDS011;33408;52.062;11.722;2023-02-01T04:22:53;23.52;;;4.93;;
47669;SDS011;33408;52.062;11.722;2023-02-01T04:25:20;20.90;;;5.38;;
47669;SDS011;33408;52.062;11.722;2023-02-01T04:27:48;26.85;;;5.07;;
47669;SDS011;33408;52.062;11.722;2023-02-01T04:30:14;20.30;;;4.00;;
47669;SDS011;33408;52.062;11.722;2023-02-01T04:32:41;21.63;;;4.47;;
47669;SDS011;33408;52.062;11.722;2023-02-01T04:35:08;18.15;;;4.80;;
47669;SDS011;33408;52.062;11.722;2023-02-01T04:37:36;19.13;;;5.32;;
47669;SDS011;33408;52.062;11.722;2023-02-01T04:40:03;15.57;;;4.20;;
47669;SDS011;33408;52.062;11.722;2023-02-01T04:42:30;21.88;;;4.82;;
47669;SDS011;33408;52.062;11.722;2023-02-01T04:44:58;17.08;;;4.25;;
47669;SDS011;33408;52.062;11.722;2023-02-01T04:47:25;23.45;;;4.60;;
47669;SDS011;33408;52.062;11.722;2023-02-01T04:49:52;24.30;;;5.35;;
47669;SDS011;33408;52.062;11.722;2023-02-01T04:52:19;16.55;;;4.82;;
47669;SDS011;33408;52.062;11.722;2023-02-01T04:54:45;19.75;;;4.55;;
47669;SDS011;33408;52.062;11.722;2023-02-01T04:57:12;19.90;;;4.90;;
47669;SDS011;33408;52.062;11.722;2023-02-01T04:59:40;19.92;;;5.25;;
47669;SDS011;33408;52.062;11.722;2023-02-01T05:02:08;20.40;;;5.93;;
47669;SDS011;33408;52.062;11.722;2023-02-01T05:04:34;24.63;;;5.47;;
47669;SDS011;33408;52.062;11.722;2023-02-01T05:07:01;25.08;;;5.15;;
47669;SDS011;33408;52.062;11.722;2023-02-01T05:09:27;25.30;;;6.20;;
47669;SDS011;33408;52.062;11.722;2023-02-01T05:11:54;20.10;;;4.45;;
47669;SDS011;33408;52.062;11.722;2023-02-01T05:14:38;20.95;;;4.88;;
47669;SDS011;33408;52.062;11.722;2023-02-01T05:17:05;24.85;;;6.40;;
47669;SDS011;33408;52.062;11.722;2023-02-01T05:19:33;19.67;;;4.75;;
47669;SDS011;33408;52.062;11.722;2023-02-01T05:21:59;19.40;;;4.90;;
47669;SDS011;33408;52.062;11.722;2023-02-01T05:24:26;20.35;;;5.15;;
47669;SDS011;33408;52.062;11.722;2023-02-01T05:26:52;18.13;;;5.00;;
47669;SDS011;33408;52.062;11.722;2023-02-01T05:29:19;18.98;;;4.97;;
47669;SDS011;33408;52.062;11.722;2023-02-01T05:31:46;17.98;;;5.82;;
47669;SDS011;33408;52.062;11.722;2023-02-01T05:34:13;20.00;;;5.45;;
47669;SDS011;33408;52.062;11.722;2023-02-01T05:36:41;27.95;;;5.82;;
47669;SDS011;33408;52.062;11.722;2023-02-01T05:39:07;18.80;;;5.68;;
47669;SDS011;33408;52.062;11.722;2023-02-01T05:41:35;23.75;;;5.97;;
47669;SDS011;33408;52.062;11.722;2023-02-01T05:44:02;17.75;;;5.10;;
47669;SDS011;33408;52.062;11.722;2023-02-01T05:46:29;22.48;;;6.38;;
47669;SDS011;33408;52.062;11.722;2023-02-01T05:48:55;20.73;;;5.13;;
47669;SDS011;33408;52.062;11.722;2023-02-01T05:51:22;19.23;;;4.68;;
47669;SDS011;33408;52.062;11.722;2023-02-01T05:53:50;15.23;;;4.35;;
47669;SDS011;33408;52.062;11.722;2023-02-01T05:56:16;20.80;;;5.88;;
47669;SDS011;33408;52.062;11.722;2023-02-01T05:58:43;17.50;;;4.60;;
47669;SDS011;33408;52.062;11.722;2023-02-01T06:01:10;19.38;;;5.50;;
47669;SDS011;33408;52.062;11.722;2023-02-01T06:03:36;15.35;;;4.50;;
47669;SDS011;33408;52.062;11.722;2023-02-01T06:06:03;18.10;;;5.43;;
47669;SDS011;33408;52.062;11.722;2023-02-01T06:08:30;25.70;;;5.80;;
47669;SDS011;33408;52.062;11.722;2023-02-01T06:10:58;20.35;;;4.97;;
47669;SDS011;33408;52.062;11.722;2023-02-01T06:13:25;17.25;;;5.38;;
47669;SDS011;33408;52.062;11.722;2023-02-01T06:15:52;20.48;;;4.75;;
47669;SDS011;33408;52.062;11.722;2023-02-01T06:18:18;24.30;;;5.22;;
47669;SDS011;33408;52.062;11.722;2023-02-01T06:20:51;20.50;;;6.05;;
47669;SDS011;33408;52.062;11.722;2023-02-01T06:23:18;24.58;;;5.75;;
47669;SDS011;33408;52.062;11.722;2023-02-01T06:25:49;22.38;;;5.70;;
47669;SDS011;33408;52.062;11.722;2023-02-01T06:28:18;21.27;;;5.10;;
47669;SDS011;33408;52.062;11.722;2023-02-01T06:30:45;22.77;;;5.72;;
47669;SDS011;33408;52.062;11.722;2023-02-01T06:33:11;22.50;;;5.78;;
47669;SDS011;33408;52.062;11.722;2023-02-01T06:35:39;24.80;;;6.13;;
47669;SDS011;33408;52.062;11.722;2023-02-01T06:38:06;18.13;;;5.50;;
47669;SDS011;33408;52.062;11.722;2023-02-01T06:40:33;20.63;;;6.85;;
47669;SDS011;33408;52.062;11.722;2023-02-01T06:43:00;24.10;;;5.97;;
47669;SDS011;33408;52.062;11.722;2023-02-01T06:45:28;19.48;;;6.43;;
47669;SDS011;33408;52.062;11.722;2023-02-01T06:47:55;21.13;;;6.10;;
47669;SDS011;33408;52.062;11.722;2023-02-01T06:50:21;20.23;;;6.82;;
47669;SDS011;33408;52.062;11.722;2023-02-01T07:09:38;16.27;;;4.50;;
47669;SDS011;33408;52.062;11.722;2023-02-01T07:12:05;17.08;;;5.22;;
47669;SDS011;33408;52.062;11.722;2023-02-01T07:14:32;20.63;;;6.00;;
47669;SDS011;33408;52.062;11.722;2023-02-01T07:16:58;21.70;;;5.10;;
47669;SDS011;33408;52.062;11.722;2023-02-01T07:19:25;19.17;;;5.95;;
47669;SDS011;33408;52.062;11.722;2023-02-01T07:21:51;19.98;;;4.75;;
47669;SDS011;33408;52.062;11.722;2023-02-01T07:24:21;19.88;;;5.72;;
47669;SDS011;33408;52.062;11.722;2023-02-01T07:26:49;20.10;;;4.30;;
47669;SDS011;33408;52.062;11.722;2023-02-01T07:29:16;23.42;;;6.32;;
47669;SDS011;33408;52.062;11.722;2023-02-01T07:31:43;17.75;;;4.82;;
47669;SDS011;33408;52.062;11.722;2023-02-01T07:34:09;22.05;;;5.63;;
47669;SDS011;33408;52.062;11.722;2023-02-01T07:36:36;17.95;;;4.97;;
47669;SDS011;33408;52.062;11.722;2023-02-01T07:39:03;15.43;;;4.10;;
47669;SDS011;33408;52.062;11.722;2023-02-01T07:41:30;16.90;;;4.57;;
47669;SDS011;33408;52.062;11.722;2023-02-01T07:43:58;18.05;;;5.13;;
47669;SDS011;33408;52.062;11.722;2023-02-01T07:46:24;16.05;;;4.82;;
47669;SDS011;33408;52.062;11.722;2023-02-01T07:48:51;19.25;;;4.55;;
47669;SDS011;33408;52.062;11.722;2023-02-01T07:51:17;13.02;;;4.45;;
47669;SDS011;33408;52.062;11.722;2023-02-01T07:53:44;11.82;;;4.45;;
47669;SDS011;33408;52.062;11.722;2023-02-01T07:56:11;12.23;;;3.90;;
47669;SDS011;33408;52.062;11.722;2023-02-01T07:58:40;14.93;;;4.68;;
47669;SDS011;33408;52.062;11.722;2023-02-01T08:01:12;18.90;;;5.57;;
47669;SDS011;33408;52.062;11.722;2023-02-01T08:03:45;19.75;;;5.65;;
47669;SDS011;33408;52.062;11.722;2023-02-01T08:06:12;15.55;;;5.00;;
47669;SDS011;33408;52.062;11.722;2023-02-01T08:08:38;13.55;;;4.25;;
47669;SDS011;33408;52.062;11.722;2023-02-01T08:11:05;12.98;;;4.20;;
47669;SDS011;33408;52.062;11.722;2023-02-01T08:13:33;13.00;;;4.10;;
47669;SDS011;33408;52.062;11.722;2023-02-01T08:16:00;13.75;;;4.10;;
47669;SDS011;33408;52.062;11.722;2023-02-01T08:18:29;17.08;;;3.97;;
47669;SDS011;33408;52.062;11.722;2023-02-01T08:20:56;12.82;;;4.35;;
47669;SDS011;33408;52.062;11.722;2023-02-01T08:23:23;13.38;;;4.45;;
47669;SDS011;33408;52.062;11.722;2023-02-01T08:25:49;13.35;;;3.67;;
47669;SDS011;33408;52.062;11.722;2023-02-01T08:28:16;13.25;;;4.07;;
47669;SDS011;33408;52.062;11.722;2023-02-01T08:30:42;11.80;;;4.10;;
47669;SDS011;33408;52.062;11.722;2023-02-01T08:33:09;11.90;;;3.70;;
47669;SDS011;33408;52.062;11.722;2023-02-01T08:35:38;10.95;;;3.42;;
47669;SDS011;33408;52.062;11.722;2023-02-01T08:38:05;12.88;;;4.28;;
47669;SDS011;33408;52.062;11.722;2023-02-01T08:40:31;12.73;;;4.35;;
47669;SDS011;33408;52.062;11.722;2023-02-01T08:42:58;9.07;;;4.18;;
47669;SDS011;33408;52.062;11.722;2023-02-01T08:45:26;14.35;;;3.25;;
47669;SDS011;33408;52.062;11.722;2023-02-01T08:47:55;12.70;;;4.63;;
47669;SDS011;33408;52.062;11.722;2023-02-01T08:50:22;15.07;;;4.15;;
47669;SDS011;33408;52.062;11.722;2023-02-01T08:52:50;12.13;;;3.95;;
47669;SDS011;33408;52.062;11.722;2023-02-01T08:55:18;15.30;;;4.35;;
47669;SDS011;33408;52.062;11.722;2023-02-01T08:57:44;11.57;;;3.55;;
47669;SDS011;33408;52.062;11.722;2023-02-01T09:00:12;11.63;;;4.18;;
47669;SDS011;33408;52.062;11.722;2023-02-01T09:02:41;13.10;;;3.63;;
47669;SDS011;33408;52.062;11.722;2023-02-01T09:05:08;11.57;;;3.63;;
47669;SDS011;33408;52.062;11.722;2023-02-01T09:07:35;6.95;;;2.70;;
47669;SDS011;33408;52.062;11.722;2023-02-01T09:10:04;10.48;;;3.50;;
47669;SDS011;33408;52.062;11.722;2023-02-01T09:12:31;10.27;;;3.80;;
47669;SDS011;33408;52.062;11.722;2023-02-01T09:14:59;11.75;;;4.20;;
47669;SDS011;33408;52.062;11.722;2023-02-01T09:17:25;15.70;;;4.05;;
47669;SDS011;33408;52.062;11.722;2023-02-01T09:19:52;13.02;;;3.83;;
47669;SDS011;33408;52.062;11.722;2023-02-01T09:22:19;13.35;;;4.63;;
47669;SDS011;33408;52.062;11.722;2023-02-01T09:24:46;11.93;;;4.28;;
47669;SDS011;33408;52.062;11.722;2023-02-01T09:27:14;16.20;;;4.10;;
47669;SDS011;33408;52.062;11.722;2023-02-01T09:29:40;11.27;;;3.95;;
47669;SDS011;33408;52.062;11.722;2023-02-01T09:32:07;12.90;;;3.30;;
47669;SDS011;33408;52.062;11.722;2023-02-01T09:34:34;12.35;;;3.60;;
47669;SDS011;33408;52.062;11.722;2023-02-01T09:37:00;10.60;;;3.10;;
47669;SDS011;33408;52.062;11.722;2023-02-01T09:39:27;10.27;;;2.92;;
47669;SDS011;33408;52.062;11.722;2023-02-01T09:41:57;9.48;;;3.00;;
47669;SDS011;33408;52.062;11.722;2023-02-01T09:44:35;11.95;;;3.78;;
47669;SDS011;33408;52.062;11.722;2023-02-01T09:47:12;9.00;;;2.97;;
47669;SDS011;33408;52.062;11.722;2023-02-01T09:49:43;14.32;;;3.10;;
47669;SDS011;33408;52.062;11.722;2023-02-01T09:52:16;12.90;;;3.40;;
47669;SDS011;33408;52.062;11.722;2023-02-01T09:54:47;7.80;;;3.10;;
47669;SDS011;33408;52.062;11.722;2023-02-01T09:57:23;10.25;;;3.45;;
47669;SDS011;33408;52.062;11.722;2023-02-01T09:59:54;13.02;;;3.55;;
47669;SDS011;33408;52.062;11.722;2023-02-01T10:02:25;13.68;;;3.70;;
47669;SDS011;33408;52.062;11.722;2023-02-01T10:04:55;14.02;;;3.42;;
47669;SDS011;33408;52.062;11.722;2023-02-01T10:07:26;10.77;;;4.00;;
47669;SDS011;33408;52.062;11.722;2023-02-01T10:09:58;11.43;;;3.38;;
47669;SDS011;33408;52.062;11.722;2023-02-01T10:12:37;11.43;;;3.38;;
47669;SDS011;33408;52.062;11.722;2023-02-01T10:15:24;10.07;;;3.22;;
47669;SDS011;33408;52.062;11.722;2023-02-01T10:18:06;11.77;;;4.38;;
47669;SDS011;33408;52.062;11.722;2023-02-01T10:20:52;13.85;;;3.97;;
47669;SDS011;33408;52.062;11.722;2023-02-01T10:23:30;14.77;;;4.03;;
47669;SDS011;33408;52.062;11.722;2023-02-01T10:26:09;14.02;;;3.95;;
47669;SDS011;33408;52.062;11.722;2023-02-01T10:28:42;17.75;;;4.05;;
47669;SDS011;33408;52.062;11.722;2023-02-01T10:31:12;17.92;;;3.80;;
47669;SDS011;33408;52.062;11.722;2023-02-01T10:33:41;11.88;;;3.45;;
47669;SDS011;33408;52.062;11.722;2023-02-01T10:36:17;18.95;;;4.10;;
47669;SDS011;33408;52.062;11.722;2023-02-01T10:38:49;13.00;;;3.38;;
47669;SDS011;33408;52.062;11.722;2023-02-01T10:41:16;9.80;;;3.25;;
47669;SDS011;33408;52.062;11.722;2023-02-01T10:43:45;14.90;;;3.55;;
47669;SDS011;33408;52.062;11.722;2023-02-01T10:46:18;14.57;;;3.85;;
47669;SDS011;33408;52.062;11.722;2023-02-01T10:48:45;16.38;;;3.85;;
47669;SDS011;33408;52.062;11.722;2023-02-01T10:51:14;20.77;;;4.13;;
47669;SDS011;33408;52.062;11.722;2023-02-01T10:53:47;18.35;;;4.97;;
47669;SDS011;33408;52.062;11.722;2023-02-01T10:56:21;17.63;;;4.70;;
47669;SDS011;33408;52.062;11.722;2023-02-01T10:58:49;16.67;;;4.18;;
47669;SDS011;33408;52.062;11.722;2023-02-01T11:01:19;16.58;;;5.32;;
47669;SDS011;33408;52.062;11.722;2023-02-01T11:03:51;18.13;;;4.45;;
47669;SDS011;33408;52.062;11.722;2023-02-01T11:06:26;13.77;;;4.13;;
47669;SDS011;33408;52.062;11.722;2023-02-01T11:08:54;16.40;;;4.03;;
47669;SDS011;33408;52.062;11.722;2023-02-01T11:11:23;13.23;;;4.57;;
47669;SDS011;33408;52.062;11.722;2023-02-01T11:17:24;17.67;;;4.43;;
47669;SDS011;33408;52.062;11.722;2023-02-01T11:19:56;20.02;;;4.10;;
47669;SDS011;33408;52.062;11.722;2023-02-01T11:22:24;14.88;;;4.07;;
47669;SDS011;33408;52.062;11.722;2023-02-01T11:24:52;14.98;;;4.07;;
47669;SDS011;33408;52.062;11.722;2023-02-01T11:27:20;17.23;;;4.38;;
47669;SDS011;33408;52.062;11.722;2023-02-01T11:29:49;15.38;;;3.78;;
47669;SDS011;33408;52.062;11.722;2023-02-01T11:32:19;13.80;;;3.53;;
47669;SDS011;33408;52.062;11.722;2023-02-01T11:34:51;19.17;;;4.22;;
47669;SDS011;33408;52.062;11.722;2023-02-01T11:37:20;12.07;;;2.93;;
47669;SDS011;33408;52.062;11.722;2023-02-01T11:39:53;22.67;;;3.90;;
47669;SDS011;33408;52.062;11.722;2023-02-01T11:42:21;13.95;;;3.38;;
47669;SDS011;33408;52.062;11.722;2023-02-01T11:44:48;18.13;;;3.03;;
47669;SDS011;33408;52.062;11.722;2023-02-01T11:47:18;15.52;;;4.07;;
47669;SDS011;33408;52.062;11.722;2023-02-01T11:49:47;12.50;;;3.45;;
47669;SDS011;33408;52.062;11.722;2023-02-01T11:52:40;14.00;;;3.92;;
47669;SDS011;33408;52.062;11.722;2023-02-01T11:58:04;16.63;;;3.75;;
47669;SDS011;33408;52.062;11.722;2023-02-01T12:00:47;13.73;;;3.20;;
47669;SDS011;33408;52.062;11.722;2023-02-01T12:03:38;20.42;;;4.20;;
47669;SDS011;33408;52.062;11.722;2023-02-01T12:06:28;17.60;;;4.28;;
47669;SDS011;33408;52.062;11.722;2023-02-01T12:09:07;9.45;;;3.30;;
47669;SDS011;33408;52.062;11.722;2023-02-01T12:11:43;13.73;;;3.15;;
47669;SDS011;33408;52.062;11.722;2023-02-01T12:17:08;11.18;;;3.13;;
47669;SDS011;33408;52.062;11.722;2023-02-01T12:20:08;18.58;;;4.05;;
47669;SDS011;33408;52.062;11.722;2023-02-01T12:22:51;18.00;;;3.75;;
47669;SDS011;33408;52.062;11.722;2023-02-01T12:25:30;18.10;;;4.35;;
47669;SDS011;33408;52.062;11.722;2023-02-01T12:28:07;14.50;;;3.63;;
47669;SDS011;33408;52.062;11.722;2023-02-01T12:30:51;16.17;;;4.18;;
47669;SDS011;33408;52.062;11.722;2023-02-01T12:33:31;13.73;;;4.37;;
47669;SDS011;33408;52.062;11.722;2023-02-01T12:36:12;17.80;;;3.42;;
47669;SDS011;33408;52.062;11.722;2023-02-01T12:38:52;14.10;;;3.45;;
47669;SDS011;33408;52.062;11.722;2023-02-01T12:44:17;17.20;;;3.67;;
47669;SDS011;33408;52.062;11.722;2023-02-01T12:46:53;16.55;;;3.20;;
47669;SDS011;33408;52.062;11.722;2023-02-01T12:49:27;13.27;;;2.88;;
47669;SDS011;33408;52.062;11.722;2023-02-01T12:52:00;15.07;;;3.40;;
47669;SDS011;33408;52.062;11.722;2023-02-01T12:54:34;10.45;;;2.38;;
47669;SDS011;33408;52.062;11.722;2023-02-01T12:57:06;15.10;;;3.15;;
47669;SDS011;33408;52.062;11.722;2023-02-01T12:59:39;12.05;;;3.10;;
47669;SDS011;33408;52.062;11.722;2023-02-01T13:02:11;13.23;;;3.10;;
47669;SDS011;33408;52.062;11.722;2023-02-01T13:04:49;13.98;;;3.63;;
47669;SDS011;33408;52.062;11.722;2023-02-01T13:07:24;15.38;;;3.35;;
47669;SDS011;33408;52.062;11.722;2023-02-01T13:09:59;16.83;;;3.25;;
47669;SDS011;33408;52.062;11.722;2023-02-01T13:12:33;10.00;;;2.70;;
47669;SDS011;33408;52.062;11.722;2023-02-01T13:15:03;13.90;;;3.05;;
47669;SDS011;33408;52.062;11.722;2023-02-01T13:17:37;15.50;;;3.67;;
47669;SDS011;33408;52.062;11.722;2023-02-01T13:20:07;11.18;;;2.80;;
47669;SDS011;33408;52.062;11.722;2023-02-01T13:22:42;12.43;;;3.03;;
47669;SDS011;33408;52.062;11.722;2023-02-01T13:25:26;9.60;;;2.70;;
47669;SDS011;33408;52.062;11.722;2023-02-01T13:27:58;13.05;;;3.13;;
47669;SDS011;33408;52.062;11.722;2023-02-01T13:30:34;15.70;;;3.42;;
47669;SDS011;33408;52.062;11.722;2023-02-01T13:39:24;11.57;;;3.67;;
47669;SDS011;33408;52.062;11.722;2023-02-01T13:42:03;14.98;;;4.00;;
47669;SDS011;33408;52.062;11.722;2023-02-01T13:44:40;13.52;;;3.38;;
47669;SDS011;33408;52.062;11.722;2023-02-01T13:47:13;12.68;;;3.47;;
47669;SDS011;33408;52.062;11.722;2023-02-01T13:49:48;13.50;;;3.55;;
47669;SDS011;33408;52.062;11.722;2023-02-01T13:52:24;9.85;;;3.05;;
47669;SDS011;33408;52.062;11.722;2023-02-01T13:58:02;14.05;;;3.70;;
47669;SDS011;33408;52.062;11.722;2023-02-01T14:00:32;15.18;;;3.88;;
47669;SDS011;33408;52.062;11.722;2023-02-01T14:05:57;11.00;;;3.20;;
47669;SDS011;33408;52.062;11.722;2023-02-01T14:08:42;8.85;;;2.60;;
47669;SDS011;33408;52.062;11.722;2023-02-01T14:11:31;12.57;;;3.65;;
47669;SDS011;33408;52.062;11.722;2023-02-01T14:14:36;9.50;;;3.30;;
47669;SDS011;33408;52.062;11.722;2023-02-01T14:23:20;10.70;;;3.83;;
47669;SDS011;33408;52.062;11.722;2023-02-01T14:25:59;11.57;;;3.33;;
47669;SDS011;33408;52.062;11.722;2023-02-01T14:28:29;11.50;;;3.55;;
47669;SDS011;33408;52.062;11.722;2023-02-01T14:30:56;10.32;;;3.10;;
47669;SDS011;33408;52.062;11.722;2023-02-01T14:33:26;11.13;;;3.70;;
47669;SDS011;33408;52.062;11.722;2023-02-01T14:36:00;8.43;;;3.78;;
47669;SDS011;33408;52.062;11.722;2023-02-01T14:38:31;12.68;;;3.10;;
47669;SDS011;33408;52.062;11.722;2023-02-01T14:41:12;7.53;;;3.50;;
47669;SDS011;33408;52.062;11.722;2023-02-01T14:44:14;8.70;;;3.03;;
47669;SDS011;33408;52.062;11.722;2023-02-01T14:47:02;9.88;;;4.32;;
47669;SDS011;33408;52.062;11.722;2023-02-01T14:49:37;13.10;;;4.05;;
47669;SDS011;33408;52.062;11.722;2023-02-01T14:52:14;12.07;;;4.53;;
47669;SDS011;33408;52.062;11.722;2023-02-01T14:54:44;8.60;;;3.53;;
47669;SDS011;33408;52.062;11.722;2023-02-01T14:57:15;7.30;;;2.67;;
47669;SDS011;33408;52.062;11.722;2023-02-01T14:59:45;11.80;;;3.58;;
47669;SDS011;33408;52.062;11.722;2023-02-01T15:02:17;8.55;;;3.47;;
47669;SDS011;33408;52.062;11.722;2023-02-01T15:04:52;12.25;;;4.90;;
47669;SDS011;33408;52.062;11.722;2023-02-01T15:07:20;7.43;;;3.00;;
47669;SDS011;33408;52.062;11.722;2023-02-01T15:09:50;8.05;;;4.05;;
47669;SDS011;33408;52.062;11.722;2023-02-01T15:12:18;8.43;;;4.30;;
47669;SDS011;33408;52.062;11.722;2023-02-01T15:15:03;8.57;;;3.78;;
47669;SDS011;33408;52.062;11.722;2023-02-01T15:17:37;5.18;;;2.50;;
47669;SDS011;33408;52.062;11.722;2023-02-01T15:20:12;5.53;;;2.63;;
47669;SDS011;33408;52.062;11.722;2023-02-01T15:22:40;4.53;;;2.05;;
47669;SDS011;33408;52.062;11.722;2023-02-01T15:25:17;5.38;;;2.70;;
47669;SDS011;33408;52.062;11.722;2023-02-01T15:27:46;7.90;;;2.53;;
47669;SDS011;33408;52.062;11.722;2023-02-01T15:30:16;7.43;;;2.50;;
47669;SDS011;33408;52.062;11.722;2023-02-01T15:32:45;6.72;;;2.03;;
47669;SDS011;33408;52.062;11.722;2023-02-01T15:38:21;5.10;;;1.50;;
47669;SDS011;33408;52.062;11.722;2023-02-01T15:40:59;5.07;;;1.00;;